createdAt,value
2022-09-25T00:03:51.734Z,18.10
2022-09-25T00:09:10.233Z,18.10
2022-09-25T00:14:27.917Z,18.10
2022-09-25T00:19:44.893Z,18.10
2022-09-25T00:25:01.705Z,18.20
2022-09-25T00:30:18.868Z,18.20
2022-09-25T00:35:29.273Z,18.20
2022-09-25T00:40:39.670Z,18.20
2022-09-25T00:45:50.395Z,18.10
2022-09-25T00:51:00.847Z,18.10
2022-09-25T00:56:11.350Z,18.10
2022-09-25T01:01:21.670Z,18.10
2022-09-25T01:06:32.028Z,18.10
2022-09-25T01:11:42.367Z,18.10
2022-09-25T01:16:52.910Z,18.10
2022-09-25T01:22:03.288Z,18.10
2022-09-25T01:27:13.708Z,18.10
2022-09-25T01:32:24.531Z,18.10
2022-09-25T01:37:34.858Z,18.10
2022-09-25T01:42:45.199Z,18.10
2022-09-25T01:47:55.528Z,18.10
2022-09-25T01:53:06.102Z,18.20
2022-09-25T01:58:16.834Z,18.10
2022-09-25T02:03:33.576Z,18.10
2022-09-25T02:08:50.630Z,18.10
2022-09-25T02:14:07.601Z,18.10
2022-09-25T02:19:24.632Z,18.10
2022-09-25T02:24:41.873Z,18.10
2022-09-25T02:29:58.680Z,18.10
2022-09-25T02:35:15.619Z,18.10
2022-09-25T02:40:26.017Z,18.10
2022-09-25T02:45:36.610Z,18.10
2022-09-25T02:50:47.229Z,18.10
2022-09-25T02:55:57.698Z,18.10
2022-09-25T03:01:08.222Z,18.10
2022-09-25T03:06:18.832Z,18.10
2022-09-25T03:11:29.240Z,18.10
2022-09-25T03:16:39.557Z,18.10
2022-09-25T03:21:50.008Z,18.10
2022-09-25T03:27:00.447Z,18.10
2022-09-25T03:32:11.159Z,18.10
2022-09-25T03:37:21.557Z,18.10
2022-09-25T03:42:32.002Z,18.10
2022-09-25T03:47:42.650Z,18.10
2022-09-25T03:52:59.849Z,18.10
2022-09-25T03:58:16.872Z,18.10
2022-09-25T04:03:33.711Z,18.10
2022-09-25T04:08:50.655Z,18.10
2022-09-25T04:14:07.737Z,18.10
2022-09-25T04:19:24.506Z,18.10
2022-09-25T04:24:41.469Z,18.10
2022-09-25T04:29:58.760Z,18.10
2022-09-25T04:35:09.282Z,18.20
2022-09-25T04:40:19.702Z,18.10
2022-09-25T04:45:30.197Z,18.10
2022-09-25T04:50:40.746Z,18.10
2022-09-25T04:55:51.308Z,18.10
2022-09-25T05:01:01.913Z,18.10
2022-09-25T05:06:12.482Z,18.10
2022-09-25T05:11:22.909Z,18.10
2022-09-25T05:16:33.695Z,18.10
2022-09-25T05:21:44.119Z,18.10
2022-09-25T05:26:54.451Z,18.10
2022-09-25T05:32:04.944Z,18.10
2022-09-25T05:37:15.705Z,18.10
2022-09-25T05:42:26.168Z,18.10
2022-09-25T05:47:36.838Z,18.10
2022-09-25T05:52:53.632Z,18.10
2022-09-25T05:58:10.410Z,18.10
2022-09-25T06:03:27.766Z,18.10
2022-09-25T06:08:44.572Z,18.10
2022-09-25T06:14:01.371Z,18.10
2022-09-25T06:19:18.243Z,18.10
2022-09-25T06:24:35.740Z,18.10
2022-09-25T06:29:52.381Z,18.10
2022-09-25T06:35:09.316Z,18.10
2022-09-25T06:40:26.771Z,18.10
2022-09-25T06:45:37.213Z,18.10
2022-09-25T06:50:47.849Z,18.10
2022-09-25T06:55:58.216Z,18.10
2022-09-25T07:01:09.895Z,18.10
2022-09-25T07:06:20.417Z,18.10
2022-09-25T07:11:31.063Z,18.10
2022-09-25T07:16:41.630Z,18.00
2022-09-25T07:21:52.105Z,18.10
2022-09-25T07:27:02.475Z,18.10
2022-09-25T07:32:12.719Z,18.10
2022-09-25T07:37:23.331Z,18.10
2022-09-25T07:42:33.684Z,18.00
2022-09-25T07:47:44.023Z,18.00
2022-09-25T07:53:01.412Z,18.00
2022-09-25T07:58:18.482Z,18.10
2022-09-25T08:03:35.411Z,18.10
2022-09-25T08:08:52.507Z,18.00
2022-09-25T08:14:09.690Z,17.90
2022-09-25T08:27:59.640Z,18.00
2022-09-25T08:33:16.621Z,18.00
2022-09-25T08:38:33.173Z,18.10
2022-09-25T08:41:02.558Z,18.10
2022-09-25T08:46:13.113Z,18.10
2022-09-25T08:51:23.457Z,18.10
2022-09-25T08:56:33.771Z,18.10
2022-09-25T08:59:02.510Z,18.10
2022-09-25T09:04:19.347Z,18.20
2022-09-25T09:12:27.411Z,18.20
2022-09-25T09:17:37.849Z,18.20
2022-09-25T09:22:48.169Z,18.20
2022-09-25T09:28:05.408Z,18.30
2022-09-25T09:30:31.871Z,18.20
2022-09-25T09:35:42.278Z,18.20
2022-09-25T09:52:16.451Z,18.50
2022-09-25T09:57:33.639Z,18.40
2022-09-25T10:02:50.339Z,18.40
2022-09-25T10:08:07.354Z,18.40
2022-09-25T10:13:24.026Z,18.40
2022-09-25T10:18:41.125Z,18.40
2022-09-25T10:23:58.129Z,18.40
2022-09-25T10:29:15.103Z,18.40
2022-09-25T10:34:32.217Z,18.40
2022-09-25T10:39:49.604Z,18.40
2022-09-25T10:45:07.464Z,18.30
2022-09-25T10:50:17.922Z,18.40
2022-09-25T10:55:28.585Z,18.40
2022-09-25T11:00:39.282Z,18.40
2022-09-25T11:05:49.955Z,18.30
2022-09-25T11:11:00.449Z,18.40
2022-09-25T11:16:10.835Z,18.40
2022-09-25T11:21:21.148Z,18.30
2022-09-25T11:26:31.514Z,18.30
2022-09-25T11:31:42.215Z,18.30
2022-09-25T11:36:52.795Z,18.30
2022-09-25T11:42:03.379Z,18.40
2022-09-25T11:47:13.832Z,18.40
2022-09-25T11:52:24.287Z,18.40
2022-09-25T11:57:41.168Z,18.40
2022-09-25T12:02:58.200Z,18.40
2022-09-25T12:08:15.293Z,18.30
2022-09-25T12:13:32.037Z,18.30
2022-09-25T12:18:49.302Z,18.30
2022-09-25T12:24:05.989Z,18.30
2022-09-25T12:29:23.100Z,18.40
2022-09-25T12:34:40.341Z,18.30
2022-09-25T12:39:51.037Z,18.30
2022-09-25T12:45:01.834Z,18.30
2022-09-25T12:50:12.362Z,18.30
2022-09-25T12:55:22.756Z,18.30
2022-09-25T13:00:33.066Z,18.30
2022-09-25T13:05:43.369Z,18.30
2022-09-25T13:10:53.773Z,18.30
2022-09-25T13:16:04.342Z,18.30
2022-09-25T13:21:14.797Z,18.40
2022-09-25T13:26:25.301Z,18.30
2022-09-25T13:31:35.807Z,18.30
2022-09-25T13:36:46.464Z,18.30
2022-09-25T13:41:57.164Z,18.30
2022-09-25T13:47:07.590Z,18.30
2022-09-25T13:52:18.092Z,18.30
2022-09-25T13:57:28.548Z,18.30
2022-09-25T14:02:38.973Z,18.30
2022-09-25T14:07:55.899Z,18.30
2022-09-25T14:13:12.940Z,18.30
2022-09-25T14:18:29.861Z,18.40
2022-09-25T14:35:11.253Z,18.40
2022-09-25T14:37:44.925Z,18.40
2022-09-25T14:43:02.825Z,18.60
2022-09-25T14:45:32.865Z,18.50
2022-09-25T14:50:43.516Z,18.60
2022-09-25T14:53:14.966Z,18.60
2022-09-25T14:55:41.437Z,18.60
2022-09-25T14:58:07.894Z,18.60
2022-09-25T15:00:34.364Z,18.70
2022-09-25T15:03:08.997Z,18.70
2022-09-25T15:05:35.469Z,18.60
2022-09-25T15:08:01.936Z,18.50
2022-09-25T15:10:28.431Z,18.60
2022-09-25T15:15:44.904Z,18.60
2022-09-25T15:18:11.419Z,18.70
2022-09-25T15:34:52.116Z,18.50
2022-09-25T15:40:08.929Z,18.50
2022-09-25T15:45:26.200Z,18.40
2022-09-25T15:50:36.796Z,18.40
2022-09-25T15:55:47.213Z,18.40
2022-09-25T16:00:57.898Z,18.50
2022-09-25T16:06:08.573Z,18.40
2022-09-25T16:11:19.232Z,18.40
2022-09-25T16:16:29.993Z,18.50
2022-09-25T16:21:40.772Z,18.50
2022-09-25T16:26:51.500Z,18.50
2022-09-25T16:32:02.243Z,18.50
2022-09-25T16:37:12.551Z,18.50
2022-09-25T16:42:26.974Z,18.50
2022-09-25T16:47:37.866Z,18.40
2022-09-25T16:52:48.261Z,18.40
2022-09-25T16:57:58.721Z,18.40
2022-09-25T17:03:10.398Z,18.40
2022-09-25T17:08:21.159Z,18.40
2022-09-25T17:13:31.573Z,18.30
2022-09-25T17:18:42.032Z,18.30
2022-09-25T17:23:52.597Z,18.30
2022-09-25T17:29:02.944Z,18.30
2022-09-25T17:34:13.178Z,18.40
2022-09-25T17:39:23.865Z,18.30
2022-09-25T17:44:34.441Z,18.30
2022-09-25T17:49:44.887Z,18.30
2022-09-25T17:54:55.506Z,18.30
2022-09-25T18:00:06.265Z,18.30
2022-09-25T18:05:16.898Z,18.30
2022-09-25T18:10:27.386Z,18.30
2022-09-25T18:15:37.646Z,18.30
2022-09-25T18:20:48.018Z,18.30
2022-09-25T18:25:58.493Z,18.20
2022-09-25T18:31:15.776Z,18.20
2022-09-25T18:36:32.764Z,18.30
2022-09-25T18:41:49.777Z,18.30
2022-09-25T18:52:47.911Z,18.30
2022-09-25T18:58:04.924Z,18.20
2022-09-25T19:03:22.168Z,18.30
2022-09-25T19:08:32.872Z,18.20
2022-09-25T19:13:43.362Z,18.20
2022-09-25T19:18:53.636Z,18.20
2022-09-25T19:24:04.287Z,18.20
2022-09-25T19:29:15.022Z,18.30
2022-09-25T19:34:25.480Z,18.30
2022-09-25T19:39:35.903Z,18.30
2022-09-25T19:44:46.407Z,18.30
2022-09-25T19:49:56.805Z,18.30
2022-09-25T19:55:07.041Z,18.30
2022-09-25T20:00:17.445Z,18.20
2022-09-25T20:05:27.763Z,18.20
2022-09-25T20:10:38.368Z,18.30
2022-09-25T20:15:49.006Z,18.30
2022-09-25T20:20:59.822Z,18.30
2022-09-25T20:26:16.526Z,18.30
2022-09-25T20:31:33.532Z,18.30
2022-09-25T20:36:50.668Z,18.30
2022-09-25T20:42:07.846Z,18.30
2022-09-25T20:47:24.759Z,18.30
2022-09-25T20:52:41.702Z,18.30
2022-09-25T20:57:58.637Z,18.30
2022-09-25T21:03:15.601Z,18.30
2022-09-25T21:08:32.603Z,18.30
2022-09-25T21:13:42.985Z,18.20
2022-09-25T21:18:53.626Z,18.30
2022-09-25T21:24:04.043Z,18.30
2022-09-25T21:29:14.553Z,18.30
2022-09-25T21:34:25.364Z,18.20
2022-09-25T21:39:35.807Z,18.30
2022-09-25T21:44:46.168Z,18.30
2022-09-25T21:49:56.602Z,18.30
2022-09-25T21:55:06.879Z,18.30
2022-09-25T22:00:17.223Z,18.30
2022-09-25T22:05:27.742Z,18.30
2022-09-25T22:10:38.126Z,18.30
2022-09-25T22:15:48.416Z,18.30
2022-09-25T22:20:58.705Z,18.30
2022-09-25T22:26:09.199Z,18.30
2022-09-25T22:31:19.839Z,18.30
2022-09-25T22:36:30.329Z,18.30
2022-09-25T22:41:40.786Z,18.40
2022-09-25T22:46:51.590Z,18.40
2022-09-25T22:52:08.495Z,18.30
2022-09-25T22:57:25.434Z,18.30
2022-09-25T23:02:42.603Z,18.30
2022-09-25T23:07:59.813Z,18.30
2022-09-25T23:13:16.480Z,18.20
2022-09-25T23:18:33.752Z,18.30
2022-09-25T23:23:50.684Z,18.30
2022-09-25T23:29:07.389Z,18.20
2022-09-25T23:34:24.406Z,18.20
2022-09-25T23:39:41.860Z,18.20
2022-09-25T23:44:52.416Z,18.20
2022-09-25T23:50:04.774Z,18.20
2022-09-25T23:55:15.791Z,18.20
